sensor_id;sensor_type;location;lat;lon;timestamp;pressure;altitude;pressure_sealevel;temperature
68446;BMP280;35789;48.414;12.768;2023-02-04T00:00:00;97690.0;;;
68446;BMP280;35789;48.414;12.768;2023-02-04T00:05:00;97680.0;;;
68446;BMP280;35789;48.414;12.768;2023-02-04T00:10:01;97680.0;;;
68446;BMP280;35789;48.414;12.768;2023-02-04T00:15:01;97680.0;;;
68446;BMP280;35789;48.414;12.768;2023-02-04T00:20:00;97690.0;;;
68446;BMP280;35789;48.414;12.768;2023-02-04T00:25:00;97690.0;;;
68446;BMP280;35789;48.414;12.768;2023-02-04T00:30:00;97690.0;;;
68446;BMP280;35789;48.414;12.768;2023-02-04T00:35:00;97700.0;;;
68446;BMP280;35789;48.414;12.768;2023-02-04T00:40:00;97710.0;;;
68446;BMP280;35789;48.414;12.768;2023-02-04T00:45:00;97720.0;;;
68446;BMP280;35789;48.414;12.768;2023-02-04T00:50:00;97730.0;;;
68446;BMP280;35789;48.414;12.768;2023-02-04T00:55:00;97740.0;;;
68446;BMP280;35789;48.414;12.768;2023-02-04T01:00:00;97750.0;;;
68446;BMP280;35789;48.414;12.768;2023-02-04T01:05:00;97750.0;;;
68446;BMP280;35789;48.414;12.768;2023-02-04T01:10:00;97740.0;;;
68446;BMP280;35789;48.414;12.768;2023-02-04T01:15:00;97750.0;;;
68446;BMP280;35789;48.414;12.768;2023-02-04T01:20:00;97760.0;;;
68446;BMP280;35789;48.414;12.768;2023-02-04T01:25:00;97780.0;;;
68446;BMP280;35789;48.414;12.768;2023-02-04T01:30:00;97780.0;;;
68446;BMP280;35789;48.414;12.768;2023-02-04T01:35:00;97790.0;;;
68446;BMP280;35789;48.414;12.768;2023-02-04T01:40:00;97790.0;;;
68446;BMP280;35789;48.414;12.768;2023-02-04T01:45:01;97800.0;;;
68446;BMP280;35789;48.414;12.768;2023-02-04T01:50:01;97800.0;;;
68446;BMP280;35789;48.414;12.768;2023-02-04T01:55:01;97810.0;;;
68446;BMP280;35789;48.414;12.768;2023-02-04T02:00:00;97810.0;;;
68446;BMP280;35789;48.414;12.768;2023-02-04T02:05:00;97800.0;;;
68446;BMP280;35789;48.414;12.768;2023-02-04T02:10:01;97810.0;;;
68446;BMP280;35789;48.414;12.768;2023-02-04T02:15:00;97820.0;;;
68446;BMP280;35789;48.414;12.768;2023-02-04T02:20:00;97820.0;;;
68446;BMP280;35789;48.414;12.768;2023-02-04T02:25:00;97830.0;;;
68446;BMP280;35789;48.414;12.768;2023-02-04T02:30:00;97840.0;;;
68446;BMP280;35789;48.414;12.768;2023-02-04T02:35:00;97840.0;;;
68446;BMP280;35789;48.414;12.768;2023-02-04T02:40:00;97850.0;;;
68446;BMP280;35789;48.414;12.768;2023-02-04T02:45:02;97850.0;;;
68446;BMP280;35789;48.414;12.768;2023-02-04T02:50:00;97870.0;;;
68446;BMP280;35789;48.414;12.768;2023-02-04T02:55:00;97870.0;;;
68446;BMP280;35789;48.414;12.768;2023-02-04T03:00:00;97870.0;;;
68446;BMP280;35789;48.414;12.768;2023-02-04T03:05:00;97880.0;;;
68446;BMP280;35789;48.414;12.768;2023-02-04T03:10:01;97880.0;;;
68446;BMP280;35789;48.414;12.768;2023-02-04T03:15:00;97890.0;;;
68446;BMP280;35789;48.414;12.768;2023-02-04T03:20:01;97890.0;;;
68446;BMP280;35789;48.414;12.768;2023-02-04T03:25:00;97900.0;;;
68446;BMP280;35789;48.414;12.768;2023-02-04T03:30:00;97910.0;;;
68446;BMP280;35789;48.414;12.768;2023-02-04T03:35:00;97910.0;;;
68446;BMP280;35789;48.414;12.768;2023-02-04T03:40:00;97930.0;;;
68446;BMP280;35789;48.414;12.768;2023-02-04T03:45:00;97930.0;;;
68446;BMP280;35789;48.414;12.768;2023-02-04T03:50:00;97910.0;;;
68446;BMP280;35789;48.414;12.768;2023-02-04T03:55:00;97920.0;;;
68446;BMP280;35789;48.414;12.768;2023-02-04T04:00:00;97940.0;;;
68446;BMP280;35789;48.414;12.768;2023-02-04T04:05:00;97940.0;;;
68446;BMP280;35789;48.414;12.768;2023-02-04T04:10:00;97950.0;;;
68446;BMP280;35789;48.414;12.768;2023-02-04T04:15:00;97950.0;;;
68446;BMP280;35789;48.414;12.768;2023-02-04T04:20:00;97950.0;;;
68446;BMP280;35789;48.414;12.768;2023-02-04T04:25:00;97960.0;;;
68446;BMP280;35789;48.414;12.768;2023-02-04T04:30:00;97970.0;;;
68446;BMP280;35789;48.414;12.768;2023-02-04T04:35:00;97970.0;;;
68446;BMP280;35789;48.414;12.768;2023-02-04T04:40:00;97980.0;;;
68446;BMP280;35789;48.414;12.768;2023-02-04T04:45:00;97990.0;;;
68446;BMP280;35789;48.414;12.768;2023-02-04T04:50:00;98000.0;;;
68446;BMP280;35789;48.414;12.768;2023-02-04T04:55:00;98020.0;;;
68446;BMP280;35789;48.414;12.768;2023-02-04T05:00:00;98010.0;;;
68446;BMP280;35789;48.414;12.768;2023-02-04T05:05:00;98000.0;;;
68446;BMP280;35789;48.414;12.768;2023-02-04T05:10:01;98010.0;;;
68446;BMP280;35789;48.414;12.768;2023-02-04T05:15:00;98030.0;;;
68446;BMP280;35789;48.414;12.768;2023-02-04T05:20:00;98030.0;;;
68446;BMP280;35789;48.414;12.768;2023-02-04T05:25:00;98050.0;;;
68446;BMP280;35789;48.414;12.768;2023-02-04T05:30:00;98050.0;;;
68446;BMP280;35789;48.414;12.768;2023-02-04T05:35:00;98060.0;;;
68446;BMP280;35789;48.414;12.768;2023-02-04T05:40:00;98070.0;;;
68446;BMP280;35789;48.414;12.768;2023-02-04T05:45:00;98080.0;;;
68446;BMP280;35789;48.414;12.768;2023-02-04T05:50:00;98090.0;;;
68446;BMP280;35789;48.414;12.768;2023-02-04T05:55:00;98110.0;;;
68446;BMP280;35789;48.414;12.768;2023-02-04T06:00:00;98120.0;;;
68446;BMP280;35789;48.414;12.768;2023-02-04T06:05:00;98130.0;;;
68446;BMP280;35789;48.414;12.768;2023-02-04T06:10:00;98140.0;;;
68446;BMP280;35789;48.414;12.768;2023-02-04T06:15:00;98140.0;;;
68446;BMP280;35789;48.414;12.768;2023-02-04T06:20:00;98150.0;;;
68446;BMP280;35789;48.414;12.768;2023-02-04T06:25:00;98180.0;;;
68446;BMP280;35789;48.414;12.768;2023-02-04T06:30:00;98200.0;;;
68446;BMP280;35789;48.414;12.768;2023-02-04T06:35:00;98230.0;;;
68446;BMP280;35789;48.414;12.768;2023-02-04T06:40:00;98260.0;;;
68446;BMP280;35789;48.414;12.768;2023-02-04T06:45:00;98260.0;;;
68446;BMP280;35789;48.414;12.768;2023-02-04T06:50:00;98290.0;;;
68446;BMP280;35789;48.414;12.768;2023-02-04T06:55:00;98290.0;;;
68446;BMP280;35789;48.414;12.768;2023-02-04T07:00:00;98290.0;;;
68446;BMP280;35789;48.414;12.768;2023-02-04T07:05:00;98300.0;;;
68446;BMP280;35789;48.414;12.768;2023-02-04T07:10:00;98330.0;;;
68446;BMP280;35789;48.414;12.768;2023-02-04T07:15:00;98330.0;;;
68446;BMP280;35789;48.414;12.768;2023-02-04T07:20:00;98340.0;;;
68446;BMP280;35789;48.414;12.768;2023-02-04T07:25:01;98340.0;;;
68446;BMP280;35789;48.414;12.768;2023-02-04T07:30:00;98340.0;;;
68446;BMP280;35789;48.414;12.768;2023-02-04T07:35:00;98350.0;;;
68446;BMP280;35789;48.414;12.768;2023-02-04T07:40:00;98370.0;;;
68446;BMP280;35789;48.414;12.768;2023-02-04T07:45:00;98390.0;;;
68446;BMP280;35789;48.414;12.768;2023-02-04T07:50:00;98390.0;;;
68446;BMP280;35789;48.414;12.768;2023-02-04T07:55:00;98400.0;;;
68446;BMP280;35789;48.414;12.768;2023-02-04T08:00:00;98410.0;;;
68446;BMP280;35789;48.414;12.768;2023-02-04T08:05:00;98410.0;;;
68446;BMP280;35789;48.414;12.768;2023-02-04T08:10:00;98430.0;;;
68446;BMP280;35789;48.414;12.768;2023-02-04T08:15:00;98430.0;;;
68446;BMP280;35789;48.414;12.768;2023-02-04T08:20:00;98440.0;;;
68446;BMP280;35789;48.414;12.768;2023-02-04T08:25:00;98440.0;;;
68446;BMP280;35789;48.414;12.768;2023-02-04T08:30:00;98450.0;;;
68446;BMP280;35789;48.414;12.768;2023-02-04T08:35:00;98440.0;;;
68446;BMP280;35789;48.414;12.768;2023-02-04T08:40:00;98450.0;;;
68446;BMP280;35789;48.414;12.768;2023-02-04T08:45:00;98450.0;;;
68446;BMP280;35789;48.414;12.768;2023-02-04T08:50:00;98450.0;;;
68446;BMP280;35789;48.414;12.768;2023-02-04T08:55:00;98450.0;;;
68446;BMP280;35789;48.414;12.768;2023-02-04T09:00:00;98470.0;;;
68446;BMP280;35789;48.414;12.768;2023-02-04T09:05:00;98480.0;;;
68446;BMP280;35789;48.414;12.768;2023-02-04T09:10:00;98490.0;;;
68446;BMP280;35789;48.414;12.768;2023-02-04T09:15:00;98490.0;;;
68446;BMP280;35789;48.414;12.768;2023-02-04T09:20:00;98500.0;;;
68446;BMP280;35789;48.414;12.768;2023-02-04T09:25:00;98510.0;;;
68446;BMP280;35789;48.414;12.768;2023-02-04T09:30:00;98510.0;;;
68446;BMP280;35789;48.414;12.768;2023-02-04T09:35:00;98530.0;;;
68446;BMP280;35789;48.414;12.768;2023-02-04T09:40:00;98540.0;;;
68446;BMP280;35789;48.414;12.768;2023-02-04T09:45:01;98560.0;;;
68446;BMP280;35789;48.414;12.768;2023-02-04T09:50:00;98570.0;;;
68446;BMP280;35789;48.414;12.768;2023-02-04T09:55:00;98580.0;;;
68446;BMP280;35789;48.414;12.768;2023-02-04T10:00:00;98590.0;;;
68446;BMP280;35789;48.414;12.768;2023-02-04T10:05:00;98590.0;;;
68446;BMP280;35789;48.414;12.768;2023-02-04T10:10:00;98590.0;;;
68446;BMP280;35789;48.414;12.768;2023-02-04T10:15:00;98580.0;;;
68446;BMP280;35789;48.414;12.768;2023-02-04T10:20:00;98590.0;;;
68446;BMP280;35789;48.414;12.768;2023-02-04T10:25:00;98590.0;;;
68446;BMP280;35789;48.414;12.768;2023-02-04T10:30:00;98600.0;;;
68446;BMP280;35789;48.414;12.768;2023-02-04T10:35:02;98610.0;;;
68446;BMP280;35789;48.414;12.768;2023-02-04T10:40:00;98600.0;;;
68446;BMP280;35789;48.414;12.768;2023-02-04T10:45:00;98600.0;;;
68446;BMP280;35789;48.414;12.768;2023-02-04T10:50:06;98600.0;;;
68446;BMP280;35789;48.414;12.768;2023-02-04T10:55:03;98610.0;;;
68446;BMP280;35789;48.414;12.768;2023-02-04T11:00:03;98610.0;;;
68446;BMP280;35789;48.414;12.768;2023-02-04T11:05:02;98610.0;;;
68446;BMP280;35789;48.414;12.768;2023-02-04T11:10:00;98610.0;;;
68446;BMP280;35789;48.414;12.768;2023-02-04T11:15:00;98620.0;;;
68446;BMP280;35789;48.414;12.768;2023-02-04T11:20:14;98620.0;;;
68446;BMP280;35789;48.414;12.768;2023-02-04T11:25:00;98610.0;;;
68446;BMP280;35789;48.414;12.768;2023-02-04T11:30:06;98610.0;;;
68446;BMP280;35789;48.414;12.768;2023-02-04T11:35:24;98610.0;;;
68446;BMP280;35789;48.414;12.768;2023-02-04T11:40:13;98610.0;;;
68446;BMP280;35789;48.414;12.768;2023-02-04T11:45:11;98600.0;;;
68446;BMP280;35789;48.414;12.768;2023-02-04T11:50:08;98610.0;;;
68446;BMP280;35789;48.414;12.768;2023-02-04T11:55:00;98610.0;;;
68446;BMP280;35789;48.414;12.768;2023-02-04T12:00:00;98610.0;;;
68446;BMP280;35789;48.414;12.768;2023-02-04T12:05:10;98600.0;;;
68446;BMP280;35789;48.414;12.768;2023-02-04T12:10:11;98600.0;;;
68446;BMP280;35789;48.414;12.768;2023-02-04T12:15:12;98600.0;;;
68446;BMP280;35789;48.414;12.768;2023-02-04T12:20:00;98600.0;;;
68446;BMP280;35789;48.414;12.768;2023-02-04T12:25:00;98600.0;;;
68446;BMP280;35789;48.414;12.768;2023-02-04T12:30:00;98590.0;;;
68446;BMP280;35789;48.414;12.768;2023-02-04T12:35:00;98590.0;;;
68446;BMP280;35789;48.414;12.768;2023-02-04T12:40:00;98600.0;;;
68446;BMP280;35789;48.414;12.768;2023-02-04T12:45:00;98600.0;;;
68446;BMP280;35789;48.414;12.768;2023-02-04T12:50:00;98600.0;;;
68446;BMP280;35789;48.414;12.768;2023-02-04T12:55:00;98610.0;;;
68446;BMP280;35789;48.414;12.768;2023-02-04T13:00:03;98610.0;;;
68446;BMP280;35789;48.414;12.768;2023-02-04T13:05:00;98610.0;;;
68446;BMP280;35789;48.414;12.768;2023-02-04T13:10:00;98610.0;;;
68446;BMP280;35789;48.414;12.768;2023-02-04T13:15:00;98610.0;;;
68446;BMP280;35789;48.414;12.768;2023-02-04T13:20:01;98610.0;;;
68446;BMP280;35789;48.414;12.768;2023-02-04T13:25:00;98620.0;;;
68446;BMP280;35789;48.414;12.768;2023-02-04T13:30:01;98620.0;;;
68446;BMP280;35789;48.414;12.768;2023-02-04T13:35:00;98620.0;;;
68446;BMP280;35789;48.414;12.768;2023-02-04T13:40:00;98640.0;;;
68446;BMP280;35789;48.414;12.768;2023-02-04T13:45:00;98650.0;;;
68446;BMP280;35789;48.414;12.768;2023-02-04T13:50:00;98650.0;;;
68446;BMP280;35789;48.414;12.768;2023-02-04T13:55:00;98650.0;;;
68446;BMP280;35789;48.414;12.768;2023-02-04T14:00:00;98650.0;;;
68446;BMP280;35789;48.414;12.768;2023-02-04T14:05:00;98660.0;;;
68446;BMP280;35789;48.414;12.768;2023-02-04T14:10:00;98660.0;;;
68446;BMP280;35789;48.414;12.768;2023-02-04T14:15:00;98650.0;;;
68446;BMP280;35789;48.414;12.768;2023-02-04T14:20:00;98650.0;;;
68446;BMP280;35789;48.414;12.768;2023-02-04T14:25:00;98660.0;;;
68446;BMP280;35789;48.414;12.768;2023-02-04T14:30:00;98670.0;;;
68446;BMP280;35789;48.414;12.768;2023-02-04T14:35:00;98680.0;;;
68446;BMP280;35789;48.414;12.768;2023-02-04T14:40:00;98690.0;;;
68446;BMP280;35789;48.414;12.768;2023-02-04T14:45:00;98690.0;;;
68446;BMP280;35789;48.414;12.768;2023-02-04T14:50:01;98700.0;;;
68446;BMP280;35789;48.414;12.768;2023-02-04T14:55:00;98700.0;;;
68446;BMP280;35789;48.414;12.768;2023-02-04T15:00:00;98690.0;;;
68446;BMP280;35789;48.414;12.768;2023-02-04T15:05:01;98690.0;;;
68446;BMP280;35789;48.414;12.768;2023-02-04T15:10:00;98700.0;;;
68446;BMP280;35789;48.414;12.768;2023-02-04T15:15:00;98700.0;;;
68446;BMP280;35789;48.414;12.768;2023-02-04T15:20:00;98710.0;;;
68446;BMP280;35789;48.414;12.768;2023-02-04T15:25:00;98710.0;;;
68446;BMP280;35789;48.414;12.768;2023-02-04T15:30:00;98720.0;;;
68446;BMP280;35789;48.414;12.768;2023-02-04T15:35:00;98730.0;;;
68446;BMP280;35789;48.414;12.768;2023-02-04T15:40:00;98730.0;;;
68446;BMP280;35789;48.414;12.768;2023-02-04T15:45:00;98740.0;;;
68446;BMP280;35789;48.414;12.768;2023-02-04T15:50:00;98740.0;;;
68446;BMP280;35789;48.414;12.768;2023-02-04T15:55:00;98750.0;;;
68446;BMP280;35789;48.414;12.768;2023-02-04T16:00:00;98760.0;;;
68446;BMP280;35789;48.414;12.768;2023-02-04T16:05:00;98760.0;;;
68446;BMP280;35789;48.414;12.768;2023-02-04T16:10:00;98770.0;;;
68446;BMP280;35789;48.414;12.768;2023-02-04T16:15:00;98770.0;;;
68446;BMP280;35789;48.414;12.768;2023-02-04T16:20:01;98770.0;;;
68446;BMP280;35789;48.414;12.768;2023-02-04T16:25:00;98780.0;;;
68446;BMP280;35789;48.414;12.768;2023-02-04T16:30:00;98790.0;;;
68446;BMP280;35789;48.414;12.768;2023-02-04T16:35:00;98790.0;;;
68446;BMP280;35789;48.414;12.768;2023-02-04T16:40:00;98800.0;;;
68446;BMP280;35789;48.414;12.768;2023-02-04T16:45:00;98810.0;;;
68446;BMP280;35789;48.414;12.768;2023-02-04T16:50:00;98820.0;;;
68446;BMP280;35789;48.414;12.768;2023-02-04T16:55:00;98820.0;;;
68446;BMP280;35789;48.414;12.768;2023-02-04T17:00:00;98830.0;;;
68446;BMP280;35789;48.414;12.768;2023-02-04T17:05:00;98830.0;;;
68446;BMP280;35789;48.414;12.768;2023-02-04T17:10:00;98840.0;;;
68446;BMP280;35789;48.414;12.768;2023-02-04T17:15:00;98840.0;;;
68446;BMP280;35789;48.414;12.768;2023-02-04T17:20:00;98850.0;;;
68446;BMP280;35789;48.414;12.768;2023-02-04T17:25:00;98850.0;;;
68446;BMP280;35789;48.414;12.768;2023-02-04T17:30:00;98850.0;;;
68446;BMP280;35789;48.414;12.768;2023-02-04T17:35:00;98860.0;;;
68446;BMP280;35789;48.414;12.768;2023-02-04T17:40:00;98860.0;;;
68446;BMP280;35789;48.414;12.768;2023-02-04T17:45:00;98860.0;;;
68446;BMP280;35789;48.414;12.768;2023-02-04T17:50:00;98860.0;;;
68446;BMP280;35789;48.414;12.768;2023-02-04T17:55:01;98860.0;;;
68446;BMP280;35789;48.414;12.768;2023-02-04T18:00:00;98860.0;;;
68446;BMP280;35789;48.414;12.768;2023-02-04T18:05:12;98860.0;;;
68446;BMP280;35789;48.414;12.768;2023-02-04T18:10:17;98860.0;;;
68446;BMP280;35789;48.414;12.768;2023-02-04T18:15:01;98870.0;;;
68446;BMP280;35789;48.414;12.768;2023-02-04T18:20:00;98880.0;;;
68446;BMP280;35789;48.414;12.768;2023-02-04T18:25:05;98880.0;;;
68446;BMP280;35789;48.414;12.768;2023-02-04T18:30:00;98880.0;;;
68446;BMP280;35789;48.414;12.768;2023-02-04T18:35:02;98880.0;;;
68446;BMP280;35789;48.414;12.768;2023-02-04T18:40:22;98880.0;;;
68446;BMP280;35789;48.414;12.768;2023-02-04T18:45:16;98880.0;;;
68446;BMP280;35789;48.414;12.768;2023-02-04T18:50:21;98880.0;;;
68446;BMP280;35789;48.414;12.768;2023-02-04T18:55:00;98890.0;;;
68446;BMP280;35789;48.414;12.768;2023-02-04T19:00:23;98900.0;;;
68446;BMP280;35789;48.414;12.768;2023-02-04T19:05:02;98890.0;;;
68446;BMP280;35789;48.414;12.768;2023-02-04T19:10:26;98900.0;;;
68446;BMP280;35789;48.414;12.768;2023-02-04T19:15:00;98890.0;;;
68446;BMP280;35789;48.414;12.768;2023-02-04T19:20:06;98890.0;;;
68446;BMP280;35789;48.414;12.768;2023-02-04T19:25:23;98900.0;;;
68446;BMP280;35789;48.414;12.768;2023-02-04T19:30:32;98900.0;;;
68446;BMP280;35789;48.414;12.768;2023-02-04T19:35:16;98900.0;;;
68446;BMP280;35789;48.414;12.768;2023-02-04T19:40:00;98900.0;;;
68446;BMP280;35789;48.414;12.768;2023-02-04T19:45:11;98900.0;;;
68446;BMP280;35789;48.414;12.768;2023-02-04T19:50:21;98900.0;;;
68446;BMP280;35789;48.414;12.768;2023-02-04T19:55:25;98900.0;;;
68446;BMP280;35789;48.414;12.768;2023-02-04T20:00:00;98900.0;;;
68446;BMP280;35789;48.414;12.768;2023-02-04T20:05:14;98900.0;;;
68446;BMP280;35789;48.414;12.768;2023-02-04T20:10:19;98900.0;;;
68446;BMP280;35789;48.414;12.768;2023-02-04T20:15:10;98900.0;;;
68446;BMP280;35789;48.414;12.768;2023-02-04T20:20:16;98900.0;;;
68446;BMP280;35789;48.414;12.768;2023-02-04T20:30:21;98910.0;;;
68446;BMP280;35789;48.414;12.768;2023-02-04T20:40:17;98920.0;;;
68446;BMP280;35789;48.414;12.768;2023-02-04T20:45:19;98920.0;;;
68446;BMP280;35789;48.414;12.768;2023-02-04T20:50:00;98940.0;;;
68446;BMP280;35789;48.414;12.768;2023-02-04T20:55:00;98950.0;;;
68446;BMP280;35789;48.414;12.768;2023-02-04T21:00:11;98940.0;;;
68446;BMP280;35789;48.414;12.768;2023-02-04T21:05:00;98950.0;;;
68446;BMP280;35789;48.414;12.768;2023-02-04T21:10:00;98960.0;;;
68446;BMP280;35789;48.414;12.768;2023-02-04T21:15:00;98960.0;;;
68446;BMP280;35789;48.414;12.768;2023-02-04T21:20:00;98970.0;;;
68446;BMP280;35789;48.414;12.768;2023-02-04T21:25:00;98960.0;;;
68446;BMP280;35789;48.414;12.768;2023-02-04T21:30:00;98960.0;;;
68446;BMP280;35789;48.414;12.768;2023-02-04T21:35:00;98960.0;;;
68446;BMP280;35789;48.414;12.768;2023-02-04T21:40:00;98960.0;;;
68446;BMP280;35789;48.414;12.768;2023-02-04T21:45:00;98960.0;;;
68446;BMP280;35789;48.414;12.768;2023-02-04T21:50:00;98960.0;;;
68446;BMP280;35789;48.414;12.768;2023-02-04T21:55:00;98960.0;;;
68446;BMP280;35789;48.414;12.768;2023-02-04T22:00:00;98970.0;;;
68446;BMP280;35789;48.414;12.768;2023-02-04T22:05:00;98970.0;;;
68446;BMP280;35789;48.414;12.768;2023-02-04T22:10:00;98960.0;;;
68446;BMP280;35789;48.414;12.768;2023-02-04T22:15:00;98970.0;;;
68446;BMP280;35789;48.414;12.768;2023-02-04T22:20:00;98960.0;;;
68446;BMP280;35789;48.414;12.768;2023-02-04T22:25:00;98970.0;;;
68446;BMP280;35789;48.414;12.768;2023-02-04T22:30:00;98970.0;;;
68446;BMP280;35789;48.414;12.768;2023-02-04T22:35:00;98980.0;;;
68446;BMP280;35789;48.414;12.768;2023-02-04T22:40:00;98980.0;;;
68446;BMP280;35789;48.414;12.768;2023-02-04T22:45:00;98980.0;;;
68446;BMP280;35789;48.414;12.768;2023-02-04T22:50:00;98980.0;;;
68446;BMP280;35789;48.414;12.768;2023-02-04T22:55:00;98980.0;;;
68446;BMP280;35789;48.414;12.768;2023-02-04T23:00:00;98990.0;;;
68446;BMP280;35789;48.414;12.768;2023-02-04T23:05:00;99000.0;;;
68446;BMP280;35789;48.414;12.768;2023-02-04T23:10:00;99000.0;;;
68446;BMP280;35789;48.414;12.768;2023-02-04T23:15:00;99000.0;;;
68446;BMP280;35789;48.414;12.768;2023-02-04T23:20:00;99000.0;;;
68446;BMP280;35789;48.414;12.768;2023-02-04T23:25:00;98990.0;;;
68446;BMP280;35789;48.414;12.768;2023-02-04T23:30:00;98980.0;;;
68446;BMP280;35789;48.414;12.768;2023-02-04T23:35:00;98990.0;;;
68446;BMP280;35789;48.414;12.768;2023-02-04T23:40:00;98980.0;;;
68446;BMP280;35789;48.414;12.768;2023-02-04T23:45:00;98990.0;;;
68446;BMP280;35789;48.414;12.768;2023-02-04T23:50:00;99000.0;;;
68446;BMP280;35789;48.414;12.768;2023-02-04T23:55:00;99000.0;;;
